Terminal Aerodrome Forecast
Issued by NWS

Current Version | Previous Version | Text Only | Print | Product List | Glossary Off
Versions: 1 2 3 4 5 6 7 8 9 10 11 12 13 14 15 16 17

492
FTUS41 KPBZ 252323
TAFHLG
TAF
KHLG 252323Z 2600/2624 11005KT P6SM BKN100
     FM261500 15012KT P6SM VCSH OVC060
     FM262200 16010KT 3SM -SHRA BR OVC035=

USA.gov is the U.S. government's official web portal to all federal, state and local government web resources and services.